map of IOM home
IOM - Airport
Location
City:  Isle of Man, Isle of Man
Name:Isle of Man Airport
Old (Alt.):Ronaldsway Airport, RAF Ronaldsway
ICAO:EGNS
IATA:IOM

Details
Type:Airport (Aerodrome, Airfield)
Use:Public/Civil, International (customs port of entry)
Latitude:5405'00"N (54.083333)
Longitude:437'24"W (-4.623332)
Elevation:52 ft (16 m)
Variation:2.50W (WMM2015 magnetic declination)
0.16 annual change
Runways:2
Longest:6923 × 151 ft (2110 × 46 m), paved

Time
Time Zone:UTC+0 (DST+1)
Local Time:

Weather
METAR:EGNS 172250Z 26019KT 230V300 9999 FEW018 BKN047 09/06 Q1023

Related Locations
Nearby:
Farthest:SZS: 11842 mi / 19058 km
Ryan's Creek, Stewart Island, STL, NZ

Find:

   beyond  
but within

Other Information
Maps:
NOTAMs:
Links:
Sources:

  
flag of Isle of Man   

Airport Diagram

Airport diagram for IOM

Airport diagram PDF

Sectional Chart

Flight Planning
at skyvector.com

Satellite Image

Google Maps Satellite view

 

Copyright © 2004-2017 Karl L. Swartz. All rights reserved.
The Great Circle Mapper name and logo are trademarks of the Great Circle Mapper.
All other trademarks mentioned herein belong to their respective owners.
Please see credits for attibutions and further copyright information.

  Follow gcmap on Facebook Follow gcmap on Twitter Follow gcmap on Google+ GCmap on LinkedIn

hCard Microformat

Geo Microformat